Time;durP1;ratioP1;P1;durP2;ratioP2;P2;SDS_P1;SDS_P2;PMS_P1;PMS_P2;Temp;Humidity;BMP_temperature;BMP_pressure;BME280_temperature;BME280_humidity;BME280_pressure;Samples;Min_cycle;Max_cycle;Signal;HPM_P1;HPM_P2
2022/02/14 00:01:16;;;;;;;;;;;;;;;21.44;42.33;100435.28;5077372;28;5394;-62
2022/02/14 00:03:42;;;;;;;;;;;;;;;21.42;42.22;100447.50;5078714;28;4142;-62
2022/02/14 00:06:09;;;;;;;;;;;;;;;21.42;42.29;100449.63;5081791;28;4174;-62
2022/02/14 00:08:36;;;;;;;;;;;;;;;21.42;42.22;100435.22;5083188;28;4205;-62
2022/02/14 00:11:03;;;;;;;;;;;;;;;21.42;42.44;100441.00;5083337;28;4321;-62
2022/02/14 00:13:30;;;;;;;;;;;;;;;21.42;42.33;100426.59;5083415;28;4336;-62
2022/02/14 00:15:56;;;;;;;;;;;;;;;21.42;42.32;100417.94;5083368;28;4199;-62
2022/02/14 00:18:23;;;;;;;;;;;;;;;21.43;42.29;100425.19;5083417;28;4521;-62
2022/02/14 00:20:49;;;;;;;;;;;;;;;21.42;42.18;100417.94;5084923;28;4014;-62
2022/02/14 00:23:15;;;;;;;;;;;;;;;21.42;42.05;100420.84;5087287;28;4905;-62
2022/02/14 00:25:42;;;;;;;;;;;;;;;21.43;42.17;100425.19;5086810;28;4244;-62
2022/02/14 00:28:08;;;;;;;;;;;;;;;21.42;42.12;100415.06;5087629;28;4237;-63
2022/02/14 00:30:35;;;;;;;;;;;;;;;21.41;42.26;100416.47;5087598;28;3981;-62
2022/02/14 00:33:01;;;;;;;;;;;;;;;21.41;42.38;100411.44;5085618;28;4262;-62
2022/02/14 00:35:27;;;;;;;;;;;;;;;21.41;42.24;100416.47;5085229;28;4416;-62
2022/02/14 00:37:54;;;;;;;;;;;;;;;21.41;42.28;100405.66;5085763;28;4218;-62
2022/02/14 00:40:20;;;;;;;;;;;;;;;21.43;42.06;100413.66;5086504;28;4420;-62
2022/02/14 00:42:47;;;;;;;;;;;;;;;21.40;42.03;100392.69;5085422;28;4134;-62
2022/02/14 00:45:14;;;;;;;;;;;;;;;21.41;42.15;100399.91;5085071;28;4210;-62
2022/02/14 00:47:41;;;;;;;;;;;;;;;21.40;42.14;100398.44;5084624;28;5273;-62
2022/02/14 00:50:08;;;;;;;;;;;;;;;21.41;42.14;100402.78;5087065;28;4258;-62
2022/02/14 00:52:34;;;;;;;;;;;;;;;21.39;42.15;100399.06;5084144;28;5464;-62
2022/02/14 00:55:01;;;;;;;;;;;;;;;21.39;42.22;100391.16;5088261;28;4214;-62
2022/02/14 00:57:27;;;;;;;;;;;;;;;21.40;42.24;100380.41;5086079;28;5251;-62
2022/02/14 00:59:53;;;;;;;;;;;;;;;21.40;42.28;100391.94;5087472;28;4059;-63
2022/02/14 01:02:20;;;;;;;;;;;;;;;21.40;42.29;100380.41;5086243;28;4642;-62
2022/02/14 01:04:46;;;;;;;;;;;;;;;21.41;42.18;100381.91;5084365;28;4223;-62
2022/02/14 01:07:13;;;;;;;;;;;;;;;21.40;41.91;100383.28;5086428;28;4152;-62
2022/02/14 01:09:41;;;;;;;;;;;;;;;21.40;41.96;100371.75;5087640;28;5293;-62
2022/02/14 01:12:08;;;;;;;;;;;;;;;21.39;42.06;100368.13;5083963;28;4277;-63
2022/02/14 01:14:34;;;;;;;;;;;;;;;21.38;41.89;100363.06;5086681;28;5434;-62
2022/02/14 01:17:01;;;;;;;;;;;;;;;21.38;42.00;100368.81;5085002;28;4185;-62
2022/02/14 01:19:27;;;;;;;;;;;;;;;21.38;41.88;100360.91;5088187;28;4526;-61
2022/02/14 01:21:53;;;;;;;;;;;;;;;21.38;41.79;100366.66;5085975;28;4059;-62
2022/02/14 01:24:20;;;;;;;;;;;;;;;21.39;41.95;100358.75;5087923;28;4159;-62
2022/02/14 01:26:46;;;;;;;;;;;;;;;21.38;42.08;100357.28;5084823;28;4197;-62
2022/02/14 01:29:12;;;;;;;;;;;;;;;21.38;41.81;100345.78;5085670;28;4188;-62
2022/02/14 01:31:39;;;;;;;;;;;;;;;21.38;41.91;100366.66;5079730;28;4197;-62
2022/02/14 01:34:05;;;;;;;;;;;;;;;21.37;41.90;100347.16;5085946;28;4158;-62
2022/02/14 01:36:31;;;;;;;;;;;;;;;21.37;41.79;100359.41;5081426;28;4174;-62
2022/02/14 01:38:58;;;;;;;;;;;;;;;21.36;41.75;100357.94;5084792;28;4222;-62
2022/02/14 01:41:24;;;;;;;;;;;;;;;21.37;41.82;100347.16;5086565;28;4003;-62
2022/02/14 01:43:50;;;;;;;;;;;;;;;21.38;41.67;100351.53;5086603;28;4029;-62
2022/02/14 01:46:17;;;;;;;;;;;;;;;21.37;41.75;100338.53;5076996;28;4236;-62
2022/02/14 01:48:43;;;;;;;;;;;;;;;21.37;42.07;100335.66;5084557;28;4154;-62
2022/02/14 01:51:10;;;;;;;;;;;;;;;21.37;42.13;100345.00;5083775;28;5256;-62
2022/02/14 01:53:36;;;;;;;;;;;;;;;21.37;42.09;100335.66;5062891;28;4185;-62
2022/02/14 01:56:02;;;;;;;;;;;;;;;21.37;41.79;100324.13;5085354;28;4199;-62
2022/02/14 01:58:29;;;;;;;;;;;;;;;21.37;41.66;100324.13;5085735;28;4170;-62
2022/02/14 02:00:55;;;;;;;;;;;;;;;21.37;41.66;100319.09;5083124;28;4058;-62
2022/02/14 02:03:24;;;;;;;;;;;;;;;21.36;41.65;100316.91;5084691;28;4228;-62
2022/02/14 02:05:51;;;;;;;;;;;;;;;21.34;41.60;100309.66;5085712;28;4206;-62
2022/02/14 02:08:17;;;;;;;;;;;;;;;21.34;41.64;100315.41;5087031;28;4262;-62
2022/02/14 02:10:43;;;;;;;;;;;;;;;21.34;41.64;100303.16;5087237;28;4214;-62
2022/02/14 02:13:10;;;;;;;;;;;;;;;21.36;41.99;100305.38;5086333;28;4216;-62
2022/02/14 02:15:39;;;;;;;;;;;;;;;21.36;42.07;100311.13;5085878;28;4919;-62
2022/02/14 02:18:06;;;;;;;;;;;;;;;21.36;41.98;100299.63;5083902;28;4115;-62
2022/02/14 02:20:33;;;;;;;;;;;;;;;21.34;41.57;100297.41;5086335;28;4058;-62
2022/02/14 02:22:59;;;;;;;;;;;;;;;21.34;41.65;100298.13;5065294;28;4210;-62
2022/02/14 02:25:25;;;;;;;;;;;;;;;21.33;41.72;100285.16;5085601;28;5452;-62
2022/02/14 02:27:52;;;;;;;;;;;;;;;21.34;41.43;100292.38;5085128;28;4154;-62
2022/02/14 02:30:18;;;;;;;;;;;;;;;21.33;41.54;100285.16;5080413;28;5244;-62
2022/02/14 02:32:45;;;;;;;;;;;;;;;21.33;41.66;100284.41;5084323;28;5325;-62
2022/02/14 02:35:12;;;;;;;;;;;;;;;21.33;41.65;100285.16;5084232;28;5513;-62
2022/02/14 02:37:39;;;;;;;;;;;;;;;21.34;41.77;100286.63;5086765;28;4127;-62
2022/02/14 02:40:08;;;;;;;;;;;;;;;21.33;41.67;100272.91;5084514;28;4211;-62
2022/02/14 02:42:34;;;;;;;;;;;;;;;21.34;41.65;100268.59;5084559;28;4192;-62
2022/02/14 02:45:00;;;;;;;;;;;;;;;21.34;41.66;100275.09;5085726;28;4405;-62
2022/02/14 02:47:27;;;;;;;;;;;;;;;21.33;41.39;100270.75;5085474;28;5385;-62
2022/02/14 02:49:54;;;;;;;;;;;;;;;21.32;41.65;100254.88;5080287;28;4225;-62
2022/02/14 02:52:20;;;;;;;;;;;;;;;21.32;41.69;100251.25;5084636;28;4153;-62
2022/02/14 02:54:47;;;;;;;;;;;;;;;21.31;41.72;100241.88;5087179;28;5236;-62
2022/02/14 02:57:13;;;;;;;;;;;;;;;21.32;41.61;100251.25;5084639;28;5220;-61
2022/02/14 02:59:40;;;;;;;;;;;;;;;21.31;41.70;100241.16;5084458;28;4222;-62
2022/02/14 03:02:07;;;;;;;;;;;;;;;21.31;41.77;100223.88;5083713;28;4196;-62
2022/02/14 03:04:33;;;;;;;;;;;;;;;21.32;41.77;100231.09;5082491;28;4221;-62
2022/02/14 03:07:00;;;;;;;;;;;;;;;21.32;41.81;100234.72;5084383;28;4120;-62
2022/02/14 03:09:26;;;;;;;;;;;;;;;21.32;41.47;100236.84;5086779;28;5231;-62
2022/02/14 03:11:54;;;;;;;;;;;;;;;21.32;41.56;100226.06;5084957;28;4239;-62
2022/02/14 03:14:21;;;;;;;;;;;;;;;21.32;41.39;100220.31;5084232;28;4217;-62
2022/02/14 03:16:47;;;;;;;;;;;;;;;21.31;41.32;100224.59;5087083;28;4253;-62
2022/02/14 03:19:14;;;;;;;;;;;;;;;21.31;41.51;100221.72;5085214;28;5216;-62
2022/02/14 03:21:41;;;;;;;;;;;;;;;21.31;41.45;100218.13;5080608;28;4379;-62
2022/02/14 03:24:07;;;;;;;;;;;;;;;21.30;41.53;100217.38;5087369;28;4141;-62
2022/02/14 03:26:33;;;;;;;;;;;;;;;21.30;41.82;100208.75;5085809;28;4493;-62
2022/02/14 03:29:00;;;;;;;;;;;;;;;21.31;41.75;100200.84;5083831;28;4210;-62
2022/02/14 03:31:26;;;;;;;;;;;;;;;21.30;41.84;100211.63;5081129;28;4167;-62
2022/02/14 03:33:53;;;;;;;;;;;;;;;21.30;41.92;100194.34;5083470;28;4142;-62
2022/02/14 03:36:19;;;;;;;;;;;;;;;21.31;41.68;100195.81;5084732;28;4098;-62
2022/02/14 03:38:46;;;;;;;;;;;;;;;21.29;41.33;100195.75;5083487;28;4075;-63
2022/02/14 03:41:12;;;;;;;;;;;;;;;21.29;41.60;100192.88;5079045;28;5169;-62
2022/02/14 03:43:38;;;;;;;;;;;;;;;21.30;41.31;100187.84;5086890;28;4292;-62
2022/02/14 03:46:05;;;;;;;;;;;;;;;21.29;41.41;100189.97;5083357;28;4197;-62
2022/02/14 03:48:31;;;;;;;;;;;;;;;21.29;41.52;100186.38;5080993;28;5245;-62
2022/02/14 03:50:58;;;;;;;;;;;;;;;21.29;41.70;100186.38;5083720;28;4552;-62
2022/02/14 03:53:25;;;;;;;;;;;;;;;21.28;41.83;100168.38;5082885;28;4518;-62
2022/02/14 03:55:51;;;;;;;;;;;;;;;21.30;41.89;100171.31;5084868;28;4229;-62
2022/02/14 03:58:17;;;;;;;;;;;;;;;21.31;41.80;100163.41;5090626;28;4145;-62
2022/02/14 04:00:44;;;;;;;;;;;;;;;21.31;41.69;100178.53;5092184;28;4516;-62
2022/02/14 04:03:10;;;;;;;;;;;;;;;21.31;41.80;100172.03;5090275;28;4199;-62
2022/02/14 04:05:36;;;;;;;;;;;;;;;21.31;41.96;100155.50;5089267;28;4228;-62
2022/02/14 04:08:03;;;;;;;;;;;;;;;21.31;41.84;100155.50;5090595;28;4024;-62
2022/02/14 04:10:30;;;;;;;;;;;;;;;21.31;41.91;100154.75;5087796;28;4153;-62
2022/02/14 04:12:56;;;;;;;;;;;;;;;21.30;41.84;100154.03;5089306;28;4227;-62
2022/02/14 04:15:25;;;;;;;;;;;;;;;21.30;41.83;100154.03;5089587;28;4153;-62
2022/02/14 04:17:51;;;;;;;;;;;;;;;21.30;41.91;100154.03;5090603;28;5215;-62
2022/02/14 04:20:17;;;;;;;;;;;;;;;21.30;41.74;100142.50;5088567;28;4257;-62
2022/02/14 04:22:44;;;;;;;;;;;;;;;21.30;41.72;100148.28;5093811;28;4116;-62
2022/02/14 04:25:11;;;;;;;;;;;;;;;21.30;41.60;100145.41;5090962;28;4318;-62
2022/02/14 04:27:37;;;;;;;;;;;;;;;21.30;41.40;100141.75;5090944;28;5404;-62
2022/02/14 04:30:04;;;;;;;;;;;;;;;21.30;41.38;100145.41;5088714;28;4370;-62
2022/02/14 04:32:30;;;;;;;;;;;;;;;21.30;41.45;100148.28;5088969;28;4213;-62
2022/02/14 04:34:57;;;;;;;;;;;;;;;21.29;41.65;100140.31;5089749;28;4147;-61
2022/02/14 04:37:23;;;;;;;;;;;;;;;21.29;41.69;100146.78;5091031;28;4162;-62
2022/02/14 04:39:49;;;;;;;;;;;;;;;21.30;41.46;100148.28;5091804;28;4233;-62
2022/02/14 04:42:16;;;;;;;;;;;;;;;21.30;41.93;100141.75;5087595;28;4965;-62
2022/02/14 04:44:43;;;;;;;;;;;;;;;21.29;41.73;100146.78;5087427;28;4174;-62
2022/02/14 04:47:09;;;;;;;;;;;;;;;21.30;41.83;100142.50;5091728;28;4031;-62
2022/02/14 04:49:36;;;;;;;;;;;;;;;21.30;41.85;100130.25;5092104;28;4242;-62
2022/02/14 04:52:02;;;;;;;;;;;;;;;21.30;41.79;100131.00;5090133;28;4211;-62
2022/02/14 04:54:29;;;;;;;;;;;;;;;21.30;41.95;100147.53;5089169;28;4208;-62
2022/02/14 04:56:55;;;;;;;;;;;;;;;21.30;41.82;100148.28;5091700;28;4143;-62
2022/02/14 04:59:21;;;;;;;;;;;;;;;21.30;41.83;100136.75;5088384;28;4802;-62
2022/02/14 05:01:48;;;;;;;;;;;;;;;21.30;41.73;100141.75;5088308;28;4171;-62
2022/02/14 05:04:14;;;;;;;;;;;;;;;21.30;41.90;100136.00;5089910;28;4241;-62
2022/02/14 05:06:41;;;;;;;;;;;;;;;21.29;42.05;100126.63;5083475;28;4112;-62
2022/02/14 05:09:07;;;;;;;;;;;;;;;21.29;41.42;100129.50;5088366;28;4300;-63
2022/02/14 05:11:34;;;;;;;;;;;;;;;21.29;41.59;100123.03;5090102;28;4158;-62
2022/02/14 05:14:00;;;;;;;;;;;;;;;21.29;41.58;100123.75;5085072;28;4207;-62
2022/02/14 05:16:26;;;;;;;;;;;;;;;21.29;41.54;100123.75;5086280;28;4086;-62
2022/02/14 05:18:53;;;;;;;;;;;;;;;21.28;41.36;100122.28;5086154;28;4188;-62
2022/02/14 05:21:19;;;;;;;;;;;;;;;21.28;41.59;100122.28;5086334;28;4121;-63
2022/02/14 05:23:45;;;;;;;;;;;;;;;21.29;41.67;100117.25;5086544;28;4241;-62
2022/02/14 05:26:18;;;;;;;;;;;;;;;21.29;41.67;100129.50;5088812;28;3992;-62
2022/02/14 05:28:44;;;;;;;;;;;;;;;21.29;41.90;100129.50;5083883;28;4123;-62
2022/02/14 05:31:10;;;;;;;;;;;;;;;21.26;41.70;100118.63;5085514;28;5423;-62
2022/02/14 05:33:36;;;;;;;;;;;;;;;21.29;41.69;100129.50;5082314;28;4157;-62
2022/02/14 05:36:03;;;;;;;;;;;;;;;21.30;41.75;100130.25;5085195;28;4061;-62
2022/02/14 05:38:29;;;;;;;;;;;;;;;21.30;41.70;100131.00;5085068;28;4360;-62
2022/02/14 05:40:56;;;;;;;;;;;;;;;21.31;41.71;100125.97;5086597;28;5387;-62
2022/02/14 05:43:22;;;;;;;;;;;;;;;21.29;41.80;100118.00;5086475;28;5237;-63
2022/02/14 05:45:48;;;;;;;;;;;;;;;21.28;41.62;100113.66;5080269;28;4158;-62
2022/02/14 05:48:15;;;;;;;;;;;;;;;21.29;41.83;100109.34;5085072;28;4149;-63
2022/02/14 05:50:41;;;;;;;;;;;;;;;21.33;42.12;100100.13;5086459;28;4192;-64
2022/02/14 05:53:07;;;;;;;;;;;;;;;20.92;40.06;100105.34;5085001;28;5122;-65
2022/02/14 05:55:34;;;;;;;;;;;;;;;21.08;39.68;100115.91;5076335;28;4139;-68
2022/02/14 05:58:00;;;;;;;;;;;;;;;21.36;40.31;100115.31;5075366;28;4251;-66
2022/02/14 06:00:27;;;;;;;;;;;;;;;21.48;40.61;100104.19;5084903;28;4203;-65
2022/02/14 06:02:53;;;;;;;;;;;;;;;21.53;40.53;100112.28;5077810;28;4237;-65
2022/02/14 06:05:20;;;;;;;;;;;;;;;21.60;40.78;100116.06;5079951;28;4364;-66
2022/02/14 06:07:46;;;;;;;;;;;;;;;21.68;40.83;100113.41;5081940;28;4240;-65
2022/02/14 06:10:12;;;;;;;;;;;;;;;21.72;40.83;100127.94;5084316;28;4310;-64
2022/02/14 06:12:39;;;;;;;;;;;;;;;21.60;40.79;100110.31;5081942;28;4183;-65
2022/02/14 06:15:05;;;;;;;;;;;;;;;21.54;40.98;100118.78;5081179;28;4194;-64
2022/02/14 06:17:32;;;;;;;;;;;;;;;21.42;40.74;100118.41;5079044;28;4056;-67
2022/02/14 06:20:00;;;;;;;;;;;;;;;21.29;39.97;100126.63;5078333;28;4294;-65
2022/02/14 06:22:26;;;;;;;;;;;;;;;21.33;40.14;100109.50;5082412;28;5262;-66
2022/02/14 06:24:52;;;;;;;;;;;;;;;21.38;39.68;100121.13;5088644;28;4203;-65
2022/02/14 06:27:19;;;;;;;;;;;;;;;21.39;39.66;100119.72;5079249;28;4199;-65
2022/02/14 06:29:46;;;;;;;;;;;;;;;21.40;40.15;100115.44;5082470;28;5282;-66
2022/02/14 06:32:14;;;;;;;;;;;;;;;21.39;40.24;100117.56;5085181;28;5249;-65
2022/02/14 06:34:40;;;;;;;;;;;;;;;21.38;41.45;100112.50;5084410;28;4276;-66
2022/02/14 06:37:07;;;;;;;;;;;;;;;21.39;41.45;100116.84;5077534;28;4209;-64
2022/02/14 06:39:33;;;;;;;;;;;;;;;21.37;41.86;100111.00;5079985;28;5453;-62
2022/02/14 06:42:00;;;;;;;;;;;;;;;21.38;42.09;100098.09;5079669;28;4200;-62
2022/02/14 06:44:26;;;;;;;;;;;;;;;21.31;41.56;100109.41;5081938;28;6258;-62
2022/02/14 06:46:54;;;;;;;;;;;;;;;21.36;41.77;100098.03;5072561;28;4271;-61
2022/02/14 06:49:20;;;;;;;;;;;;;;;21.38;42.07;100095.94;5055382;28;5195;-61
2022/02/14 06:51:47;;;;;;;;;;;;;;;21.39;41.59;100100.28;5075869;28;4199;-63
2022/02/14 06:54:13;;;;;;;;;;;;;;;21.42;41.99;100101.84;5081919;28;4234;-63
2022/02/14 06:56:39;;;;;;;;;;;;;;;21.57;43.00;100088.59;5079766;28;4149;-60
2022/02/14 06:59:06;;;;;;;;;;;;;;;21.63;42.63;100096.69;5085168;28;4259;-61
2022/02/14 07:01:32;;;;;;;;;;;;;;;21.65;42.65;100106.13;5081897;28;5393;-61
2022/02/14 07:03:58;;;;;;;;;;;;;;;21.71;42.49;100102.69;5086325;28;4043;-60
2022/02/14 07:06:25;;;;;;;;;;;;;;;21.72;42.62;100092.63;5085729;28;4155;-59
2022/02/14 07:08:51;;;;;;;;;;;;;;;21.74;42.44;100102.06;5085877;28;4177;-62
2022/02/14 07:11:22;;;;;;;;;;;;;;;21.77;42.09;100097.09;5089282;28;5424;-61
2022/02/14 07:13:49;;;;;;;;;;;;;;;21.77;41.97;100099.25;5081093;28;5290;-62
2022/02/14 07:16:16;;;;;;;;;;;;;;;21.76;41.99;100098.50;5080156;28;4158;-62
2022/02/14 07:18:42;;;;;;;;;;;;;;;21.74;42.66;100096.31;5083743;28;4505;-61
2022/02/14 07:21:09;;;;;;;;;;;;;;;21.72;41.96;100104.88;5082230;28;4195;-61
2022/02/14 07:23:35;;;;;;;;;;;;;;;21.25;41.18;100100.59;5087574;28;4233;-64
2022/02/14 07:26:01;;;;;;;;;;;;;;;21.42;41.20;100095.38;5080296;28;4245;-63
2022/02/14 07:28:28;;;;;;;;;;;;;;;21.37;41.11;100087.97;5076957;28;4143;-62
2022/02/14 07:30:54;;;;;;;;;;;;;;;21.37;40.02;100105.97;5083290;28;4201;-62
2022/02/14 07:33:21;;;;;;;;;;;;;;;21.31;39.90;100097.19;5083160;28;4143;-62
2022/02/14 07:35:47;;;;;;;;;;;;;;;21.39;39.61;100090.91;5076711;28;4253;-64
2022/02/14 07:38:14;;;;;;;;;;;;;;;21.26;39.63;100090.56;5076786;28;4195;-64
2022/02/14 07:40:41;;;;;;;;;;;;;;;21.16;39.14;100093.09;5063719;28;5641;-63
2022/02/14 07:43:09;;;;;;;;;;;;;;;21.24;38.95;100086.88;5081647;28;4144;-63
2022/02/14 07:45:35;;;;;;;;;;;;;;;21.13;38.75;100083.69;5083082;28;4247;-63
2022/02/14 07:48:02;;;;;;;;;;;;;;;21.20;38.65;100092.50;5078085;28;4191;-61
2022/02/14 07:50:28;;;;;;;;;;;;;;;21.39;38.50;100079.41;5083760;28;4218;-62
2022/02/14 07:52:54;;;;;;;;;;;;;;;21.56;38.78;100075.63;5085092;28;4405;-64
2022/02/14 07:55:21;;;;;;;;;;;;;;;21.70;38.51;100083.94;5085172;28;4096;-64
2022/02/14 07:57:48;;;;;;;;;;;;;;;21.76;38.58;100081.22;5078551;28;4252;-64
2022/02/14 08:00:16;;;;;;;;;;;;;;;21.84;38.58;100081.44;5080526;28;4240;-63
2022/02/14 08:02:42;;;;;;;;;;;;;;;21.91;38.72;100068.66;5082971;28;4331;-62
2022/02/14 08:05:10;;;;;;;;;;;;;;;21.93;38.96;100073.75;5083583;28;3990;-63
2022/02/14 08:07:37;;;;;;;;;;;;;;;21.95;39.58;100082.47;5081429;28;4351;-65
2022/02/14 08:10:24;;;;;;;;;;;;;;;21.98;39.79;100077.50;5079589;28;4206;-65
2022/02/14 08:12:50;;;;;;;;;;;;;;;22.00;39.83;100072.50;5080055;28;4054;-65
2022/02/14 08:15:18;;;;;;;;;;;;;;;22.09;39.56;100077.09;5080714;28;4200;-65
2022/02/14 08:17:45;;;;;;;;;;;;;;;21.91;39.88;100076.59;5074682;28;4197;-66
2022/02/14 08:20:11;;;;;;;;;;;;;;;21.84;40.77;100066.31;5081635;28;5308;-62
2022/02/14 08:22:38;;;;;;;;;;;;;;;21.83;41.09;100068.47;5084235;28;4142;-63
2022/02/14 08:25:04;;;;;;;;;;;;;;;21.80;41.29;100060.44;5081453;28;4225;-62
2022/02/14 08:27:31;;;;;;;;;;;;;;;21.78;41.72;100063.25;5074739;28;4343;-62
2022/02/14 08:29:57;;;;;;;;;;;;;;;21.77;41.75;100064.69;5081995;28;4207;-63
2022/02/14 08:32:24;;;;;;;;;;;;;;;21.80;41.95;100074.84;5084347;28;5328;-63
2022/02/14 08:34:50;;;;;;;;;;;;;;;21.80;41.65;100069.78;5083754;28;4261;-62
2022/02/14 08:37:17;;;;;;;;;;;;;;;21.80;41.88;100057.53;5074451;28;4284;-63
2022/02/14 08:39:45;;;;;;;;;;;;;;;21.74;42.07;100055.97;5078484;28;4271;-62
2022/02/14 08:42:11;;;;;;;;;;;;;;;21.79;42.04;100061.84;5080726;28;4314;-67
2022/02/14 08:44:38;;;;;;;;;;;;;;;21.77;42.37;100064.69;5087537;28;5251;-65
2022/02/14 08:47:04;;;;;;;;;;;;;;;21.78;42.30;100061.09;5083623;28;4320;-67
2022/02/14 08:49:35;;;;;;;;;;;;;;;21.80;42.24;100054.66;5085515;28;5582;-67
2022/02/14 08:52:01;;;;;;;;;;;;;;;21.79;42.38;100058.97;5083818;28;4184;-63
2022/02/14 08:54:28;;;;;;;;;;;;;;;21.79;42.33;100047.44;5084331;28;4275;-64
2022/02/14 08:56:56;;;;;;;;;;;;;;;21.81;42.19;100053.25;5080662;28;4131;-63
2022/02/14 08:59:22;;;;;;;;;;;;;;;21.81;42.04;100053.25;5081962;28;4487;-63
2022/02/14 09:01:48;;;;;;;;;;;;;;;21.83;42.24;100067.72;5085295;28;4138;-62
2022/02/14 09:04:15;;;;;;;;;;;;;;;21.57;40.32;100059.78;5085089;28;5308;-61
2022/02/14 09:06:41;;;;;;;;;;;;;;;21.63;41.26;100053.47;5081192;28;5264;-60
2022/02/14 09:09:27;;;;;;;;;;;;;;;21.86;41.73;100051.97;5082277;28;4205;-64
2022/02/14 09:11:55;;;;;;;;;;;;;;;21.99;41.71;100050.88;5084213;28;4224;-66
2022/02/14 09:14:22;;;;;;;;;;;;;;;22.07;41.42;100051.06;5082193;28;5377;-65
2022/02/14 09:16:49;;;;;;;;;;;;;;;22.05;41.43;100053.19;5084039;28;4071;-69
2022/02/14 09:19:15;;;;;;;;;;;;;;;22.04;41.18;100049.56;5087041;28;4187;-67
2022/02/14 09:21:42;;;;;;;;;;;;;;;22.06;40.99;100043.84;5085979;28;4153;-66
2022/02/14 09:24:12;;;;;;;;;;;;;;;22.07;40.92;100039.53;5084244;28;4041;-66
2022/02/14 09:26:39;;;;;;;;;;;;;;;22.10;39.88;100040.34;5081596;28;4020;-67
2022/02/14 09:29:06;;;;;;;;;;;;;;;22.09;40.45;100036.00;5085888;28;4178;-66
2022/02/14 09:31:32;;;;;;;;;;;;;;;22.06;39.73;100032.31;5081352;28;6146;-65
2022/02/14 09:33:58;;;;;;;;;;;;;;;22.04;38.42;100023.63;5081145;28;4353;-70
2022/02/14 09:36:25;;;;;;;;;;;;;;;22.21;38.80;100024.03;5079584;28;4383;-67
2022/02/14 09:38:51;;;;;;;;;;;;;;;22.25;39.71;100018.41;5085140;28;4078;-69
2022/02/14 09:41:17;;;;;;;;;;;;;;;22.29;40.04;100012.75;5084816;28;5484;-69
2022/02/14 09:43:44;;;;;;;;;;;;;;;22.35;39.92;100015.75;5084030;28;4166;-67
2022/02/14 09:46:11;;;;;;;;;;;;;;;22.37;40.29;100012.94;5081033;28;4211;-65
2022/02/14 09:48:37;;;;;;;;;;;;;;;22.40;40.36;100017.31;5084838;28;5183;-63
2022/02/14 09:51:04;;;;;;;;;;;;;;;22.37;40.45;100007.16;5041775;28;4195;-64
2022/02/14 09:53:30;;;;;;;;;;;;;;;22.44;40.27;100011.66;5061325;28;5240;-65
2022/02/14 09:55:57;;;;;;;;;;;;;;;22.40;40.30;100008.66;5082469;28;4115;-66
2022/02/14 09:58:24;;;;;;;;;;;;;;;22.40;40.31;100017.31;5081640;28;4262;-65
2022/02/14 10:00:51;;;;;;;;;;;;;;;22.42;40.10;100014.50;5085946;28;4251;-65
2022/02/14 10:03:18;;;;;;;;;;;;;;;22.43;40.41;100009.47;5062090;28;4440;-65
2022/02/14 10:05:46;;;;;;;;;;;;;;;22.48;40.39;100017.53;5079283;28;4165;-66
2022/02/14 10:08:23;;;;;;;;;;;;;;;22.45;40.45;100012.38;5084600;28;4122;-67
2022/02/14 10:10:51;;;;;;;;;;;;;;;22.43;40.43;100013.09;5084589;28;4230;-65
2022/02/14 10:13:33;;;;;;;;;;;;;;;22.42;40.55;100014.50;5082817;28;4153;-67
2022/02/14 10:16:00;;;;;;;;;;;;;;;22.42;40.66;100016.66;5083590;28;5315;-66
2022/02/14 10:18:30;;;;;;;;;;;;;;;22.18;38.14;100009.56;5083035;28;5207;-67
2022/02/14 10:21:14;;;;;;;;;;;;;;;22.08;37.60;100015.09;5084083;28;4231;-66
2022/02/14 10:24:04;;;;;;;;;;;;;;;21.99;37.33;100018.41;5082591;28;4262;-66
2022/02/14 10:26:36;;;;;;;;;;;;;;;22.07;38.28;100010.00;5070385;28;5151;-64
2022/02/14 10:29:20;;;;;;;;;;;;;;;22.16;38.20;100006.63;5077246;28;4344;-64
2022/02/14 10:31:47;;;;;;;;;;;;;;;21.94;37.95;100008.94;5083233;28;4147;-63
2022/02/14 10:34:16;;;;;;;;;;;;;;;21.88;38.54;100017.44;5081343;28;4576;-63
2022/02/14 10:36:43;;;;;;;;;;;;;;;21.73;38.57;100022.78;5064133;28;4249;-63
2022/02/14 10:39:11;;;;;;;;;;;;;;;21.84;38.86;100017.31;5061926;28;4225;-64
2022/02/14 10:41:38;;;;;;;;;;;;;;;22.01;38.99;100013.44;5080219;28;5365;-66
2022/02/14 10:45:07;;;;;;;;;;;;;;;22.13;38.59;100007.28;5083777;28;6409;-65
2022/02/14 10:47:07;;;;;;;;;;;;;;;22.26;38.81;100022.75;5081845;28;4272;-65
2022/02/14 10:49:34;;;;;;;;;;;;;;;22.35;39.04;100030.19;5086875;28;4447;-66
2022/02/14 10:52:04;;;;;;;;;;;;;;;22.38;39.42;100038.22;5087654;28;5251;-62
2022/02/14 10:54:34;;;;;;;;;;;;;;;22.44;39.56;100031.84;5083138;28;4101;-62
2022/02/14 10:57:01;;;;;;;;;;;;;;;22.46;39.63;100040.56;5080809;28;4613;-63
2022/02/14 10:59:29;;;;;;;;;;;;;;;22.48;39.82;100034.84;5087033;28;3994;-62
2022/02/14 11:01:56;;;;;;;;;;;;;;;22.49;39.70;100033.41;5084328;28;5289;-62
2022/02/14 11:04:22;;;;;;;;;;;;;;;22.49;39.92;100027.63;5085372;28;3941;-61
2022/02/14 11:06:49;;;;;;;;;;;;;;;22.49;39.88;100024.75;5083804;28;4475;-61
2022/02/14 11:09:15;;;;;;;;;;;;;;;22.53;39.87;100013.31;5088692;28;4195;-61
2022/02/14 11:11:42;;;;;;;;;;;;;;;22.61;40.23;100012.78;5062314;28;4114;-60
2022/02/14 11:14:10;;;;;;;;;;;;;;;22.71;40.09;100020.94;5068690;28;4532;-61
2022/02/14 11:16:37;;;;;;;;;;;;;;;22.68;40.00;100019.44;5063724;28;4416;-62
2022/02/14 11:19:04;;;;;;;;;;;;;;;22.58;39.87;100012.00;5082395;28;4230;-61
2022/02/14 11:21:33;;;;;;;;;;;;;;;22.62;39.90;100019.28;5086479;28;4130;-60
2022/02/14 11:24:02;;;;;;;;;;;;;;;22.46;39.33;100003.06;5075497;28;4289;-59
2022/02/14 11:27:13;;;;;;;;;;;;;;;22.32;38.79;99997.69;5058400;28;4186;-59
2022/02/14 11:29:41;;;;;;;;;;;;;;;22.37;37.49;99996.34;5076965;28;4153;-60
2022/02/14 11:32:16;;;;;;;;;;;;;;;22.46;37.66;100003.06;5041377;28;4274;-61
2022/02/14 11:34:56;;;;;;;;;;;;;;;22.48;37.85;100003.09;5079600;28;4171;-61
2022/02/14 11:37:22;;;;;;;;;;;;;;;22.47;37.47;100001.66;5075645;28;4104;-62
2022/02/14 11:39:49;;;;;;;;;;;;;;;22.47;37.57;99989.34;5080715;28;4146;-62
2022/02/14 11:42:15;;;;;;;;;;;;;;;22.48;36.77;99991.56;5059809;28;5205;-62
2022/02/14 11:44:44;;;;;;;;;;;;;;;22.42;35.94;99985.66;5078122;28;5390;-62
2022/02/14 11:47:11;;;;;;;;;;;;;;;22.36;35.74;99988.41;5078742;28;4197;-62
2022/02/14 11:49:44;;;;;;;;;;;;;;;22.28;35.82;99979.53;5080747;28;4177;-61
2022/02/14 11:52:24;;;;;;;;;;;;;;;22.18;35.10;99974.97;5082435;28;4140;-60
2022/02/14 11:54:50;;;;;;;;;;;;;;;22.24;35.04;99971.53;5074778;28;4281;-60
2022/02/14 11:57:17;;;;;;;;;;;;;;;22.20;35.01;99954.09;5076305;28;4872;-61
2022/02/14 11:59:44;;;;;;;;;;;;;;;22.43;35.08;99961.16;5070312;28;4184;-62
2022/02/14 12:02:10;;;;;;;;;;;;;;;22.45;34.75;99961.22;5079531;28;4153;-62
2022/02/14 12:04:41;;;;;;;;;;;;;;;22.39;35.16;99952.41;5080031;28;4143;-62
2022/02/14 12:07:20;;;;;;;;;;;;;;;22.37;34.83;99955.97;5077438;28;4231;-60
2022/02/14 12:10:01;;;;;;;;;;;;;;;22.41;34.53;99943.81;5083858;28;4186;-60
2022/02/14 12:12:43;;;;;;;;;;;;;;;22.43;34.31;99940.97;5081708;28;4335;-61
2022/02/14 12:21:00;;;;;;;;;;;;;;;22.29;34.22;99935.59;5083905;28;5216;-64
2022/02/14 12:23:27;;;;;;;;;;;;;;;22.19;35.02;99935.31;5082521;28;5393;-65
2022/02/14 12:25:53;;;;;;;;;;;;;;;22.31;34.33;99940.66;5081689;28;5526;-61
2022/02/14 12:28:20;;;;;;;;;;;;;;;22.43;33.62;99928.72;5082049;28;4141;-60
2022/02/14 12:30:48;;;;;;;;;;;;;;;22.29;33.74;99937.75;5085666;28;4066;-60
2022/02/14 12:33:14;;;;;;;;;;;;;;;22.20;34.21;99919.50;5085924;28;4200;-60
2022/02/14 12:35:47;;;;;;;;;;;;;;;22.18;33.53;99928.09;5080860;28;4152;-60
2022/02/14 12:38:16;;;;;;;;;;;;;;;22.14;33.91;99934.50;5081054;28;4150;-61
2022/02/14 12:40:53;;;;;;;;;;;;;;;22.30;33.81;99928.41;5078730;28;4366;-60
2022/02/14 12:43:29;;;;;;;;;;;;;;;22.23;33.73;99929.69;5082328;28;3999;-62
2022/02/14 12:45:57;;;;;;;;;;;;;;;22.25;33.77;99934.78;5082435;28;4065;-59
2022/02/14 12:48:27;;;;;;;;;;;;;;;22.24;33.76;99936.19;5085053;28;4809;-60
2022/02/14 12:50:53;;;;;;;;;;;;;;;22.13;34.54;99927.28;5088253;28;5285;-60
2022/02/14 12:53:20;;;;;;;;;;;;;;;22.25;34.73;99914.59;5083368;28;4182;-60
2022/02/14 12:55:46;;;;;;;;;;;;;;;22.34;34.53;99916.25;5084630;28;4223;-60